createdAt,value
2018-03-20T00:00:41.314Z,31.50
2018-03-20T00:02:20.221Z,19.75
2018-03-20T00:03:58.907Z,22.75
2018-03-20T00:05:37.541Z,25.75
2018-03-20T00:07:16.222Z,18.50
2018-03-20T00:08:54.999Z,19.75
2018-03-20T00:10:33.677Z,20.75
2018-03-20T00:12:12.543Z,27.00
2018-03-20T00:13:51.658Z,19.25
2018-03-20T00:15:31.133Z,27.50
2018-03-20T00:17:10.772Z,25.00
2018-03-20T00:18:49.779Z,20.25
2018-03-20T00:20:29.278Z,28.75
2018-03-20T00:22:07.941Z,32.50
2018-03-20T00:23:46.197Z,27.25
2018-03-20T00:25:25.596Z,21.25
2018-03-20T00:27:04.491Z,23.75
2018-03-20T00:28:43.938Z,25.75
2018-03-20T00:30:23.173Z,17.75
2018-03-20T00:32:01.602Z,22.75
2018-03-20T00:33:40.640Z,27.00
2018-03-20T00:35:19.713Z,23.50
2018-03-20T00:36:59.120Z,28.25
2018-03-20T00:38:38.154Z,24.75
2018-03-20T00:40:17.793Z,26.50
2018-03-20T00:41:56.842Z,18.25
2018-03-20T00:43:36.283Z,23.00
2018-03-20T00:45:16.724Z,31.50
2018-03-20T00:46:55.363Z,26.50
2018-03-20T00:48:34.581Z,27.50
2018-03-20T00:50:14.174Z,29.00
2018-03-20T00:51:52.500Z,22.50
2018-03-20T00:53:30.896Z,27.25
2018-03-20T00:55:10.437Z,32.25
2018-03-20T00:56:48.977Z,32.50
2018-03-20T00:58:27.579Z,25.50
2018-03-20T01:00:08.921Z,25.50
2018-03-20T01:01:50.334Z,27.25
2018-03-20T01:03:30.131Z,32.50
2018-03-20T01:05:09.150Z,35.00
2018-03-20T01:06:47.914Z,30.50
2018-03-20T01:08:26.946Z,32.00
2018-03-20T01:10:05.859Z,32.00
2018-03-20T01:11:44.924Z,27.50
2018-03-20T01:13:23.988Z,30.75
2018-03-20T01:15:04.231Z,31.25
2018-03-20T01:16:44.067Z,34.00
2018-03-20T01:18:23.215Z,32.25
2018-03-20T01:20:02.066Z,26.75
2018-03-20T01:21:40.993Z,31.00
2018-03-20T01:23:19.610Z,26.50
2018-03-20T01:24:57.885Z,29.25
2018-03-20T01:26:36.421Z,23.25
2018-03-20T01:28:15.265Z,28.25
2018-03-20T01:29:54.008Z,31.75
2018-03-20T01:31:33.910Z,25.50
2018-03-20T01:33:13.148Z,26.00
2018-03-20T01:34:52.261Z,29.25
2018-03-20T01:36:32.036Z,28.25
2018-03-20T01:38:12.077Z,26.75
2018-03-20T01:39:50.490Z,33.75
2018-03-20T01:41:29.761Z,32.25
2018-03-20T01:43:08.040Z,33.00
2018-03-20T01:44:46.433Z,25.25
2018-03-20T01:46:26.066Z,28.00
2018-03-20T01:48:06.266Z,27.00
2018-03-20T01:49:49.337Z,21.75
2018-03-20T01:51:29.195Z,28.50
2018-03-20T01:53:20.328Z,28.50
2018-03-20T01:55:00.594Z,33.00
2018-03-20T01:56:39.673Z,21.50
2018-03-20T01:58:18.319Z,30.50
2018-03-20T01:59:57.896Z,31.00
2018-03-20T02:01:37.697Z,24.25
2018-03-20T02:03:16.418Z,34.25
2018-03-20T02:04:55.068Z,33.25
2018-03-20T02:06:34.907Z,28.50
2018-03-20T02:08:14.287Z,30.75
2018-03-20T02:09:53.602Z,31.00
2018-03-20T02:11:32.225Z,25.00
2018-03-20T02:13:11.481Z,25.00
2018-03-20T02:14:51.512Z,26.50
2018-03-20T02:16:30.616Z,27.00
2018-03-20T02:18:09.154Z,34.75
2018-03-20T02:19:48.282Z,26.75
2018-03-20T02:21:27.518Z,23.00
2018-03-20T02:23:05.870Z,23.00
2018-03-20T02:24:45.382Z,23.00
2018-03-20T02:26:24.596Z,25.25
2018-03-20T02:28:03.138Z,25.75
2018-03-20T02:29:42.226Z,33.00
2018-03-20T02:31:20.725Z,30.00
2018-03-20T02:32:59.737Z,31.00
2018-03-20T02:34:38.134Z,32.50
2018-03-20T02:36:18.252Z,30.00
2018-03-20T02:37:56.811Z,37.50
2018-03-20T02:39:36.182Z,36.50
2018-03-20T02:41:14.823Z,34.25
2018-03-20T02:42:55.096Z,31.00
2018-03-20T02:44:34.589Z,29.50
2018-03-20T02:46:14.941Z,29.50
2018-03-20T02:47:54.013Z,29.25
2018-03-20T02:49:33.774Z,35.00
2018-03-20T02:51:11.718Z,30.00
2018-03-20T02:52:51.005Z,32.25
2018-03-20T02:54:29.709Z,41.25
2018-03-20T02:56:08.726Z,35.75
2018-03-20T02:57:46.613Z,35.50
2018-03-20T02:59:24.753Z,30.00
2018-03-20T03:01:03.552Z,36.25
2018-03-20T03:02:42.475Z,39.50
2018-03-20T03:04:20.841Z,35.50
2018-03-20T03:05:59.418Z,26.25
2018-03-20T03:07:38.535Z,33.25
2018-03-20T03:09:17.303Z,39.50
2018-03-20T03:10:56.173Z,30.00
2018-03-20T03:12:33.895Z,35.25
2018-03-20T03:14:12.262Z,31.75
2018-03-20T03:15:50.258Z,34.75
2018-03-20T03:17:29.131Z,34.00
2018-03-20T03:19:08.445Z,30.00
2018-03-20T03:20:45.971Z,35.75
2018-03-20T03:22:26.671Z,31.00
2018-03-20T03:24:06.497Z,29.00
2018-03-20T03:25:45.082Z,32.50
2018-03-20T03:27:23.458Z,32.50
2018-03-20T03:29:01.042Z,27.75
2018-03-20T03:30:39.773Z,38.75
2018-03-20T03:32:18.479Z,30.00
2018-03-20T03:33:56.916Z,21.25
2018-03-20T03:35:33.905Z,33.75
2018-03-20T03:37:13.007Z,27.00
2018-03-20T03:38:50.297Z,28.00
2018-03-20T03:40:27.966Z,31.50
2018-03-20T03:42:06.140Z,25.25
2018-03-20T03:43:43.603Z,30.00
2018-03-20T03:45:22.466Z,26.00
2018-03-20T03:47:00.065Z,24.00
2018-03-20T03:48:38.567Z,30.50
2018-03-20T03:50:16.479Z,26.75
2018-03-20T03:51:54.942Z,28.00
2018-03-20T03:53:32.915Z,29.75
2018-03-20T03:55:11.001Z,28.75
2018-03-20T03:56:49.783Z,27.00
2018-03-20T03:58:27.199Z,31.25
2018-03-20T04:00:06.827Z,22.50
2018-03-20T04:01:45.368Z,33.75
2018-03-20T04:03:23.930Z,33.50
2018-03-20T04:05:03.134Z,22.75
2018-03-20T04:06:40.761Z,17.50
2018-03-20T04:08:19.903Z,22.75
2018-03-20T04:09:57.986Z,33.50
2018-03-20T04:11:37.216Z,24.75
2018-03-20T04:13:15.875Z,27.25
2018-03-20T04:14:53.874Z,24.25
2018-03-20T04:16:32.674Z,22.50
2018-03-20T04:18:12.216Z,21.75
2018-03-20T04:19:50.531Z,25.50
2018-03-20T04:21:29.833Z,25.75
2018-03-20T04:23:09.074Z,22.50
2018-03-20T04:24:48.492Z,23.50
2018-03-20T04:26:26.375Z,24.00
2018-03-20T04:28:05.512Z,23.00
2018-03-20T04:29:45.424Z,21.50
2018-03-20T04:31:25.229Z,24.75
2018-03-20T04:33:03.379Z,26.25
2018-03-20T04:34:41.883Z,23.75
2018-03-20T04:36:20.826Z,27.00
2018-03-20T04:37:58.981Z,23.25
2018-03-20T04:39:37.391Z,27.25
2018-03-20T04:41:15.848Z,25.25
2018-03-20T04:42:54.062Z,26.00
2018-03-20T04:44:31.710Z,28.00
2018-03-20T04:47:55.759Z,27.75
2018-03-20T04:49:34.412Z,24.00
2018-03-20T04:51:13.899Z,20.25
2018-03-20T04:52:53.323Z,32.50
2018-03-20T04:54:30.562Z,24.50
2018-03-20T04:56:07.814Z,37.25
2018-03-20T04:57:45.820Z,26.75
2018-03-20T04:59:23.836Z,32.50
2018-03-20T05:01:01.522Z,32.25
2018-03-20T05:02:38.185Z,25.75
2018-03-20T05:04:15.649Z,32.75
2018-03-20T05:05:54.900Z,30.50
2018-03-20T05:07:33.002Z,28.25
2018-03-20T05:09:11.439Z,27.00
2018-03-20T05:10:49.458Z,21.75
2018-03-20T05:12:27.659Z,22.00
2018-03-20T05:14:06.485Z,24.50
2018-03-20T05:15:45.724Z,33.00
2018-03-20T05:17:24.831Z,28.50
2018-03-20T05:19:05.504Z,27.75
2018-03-20T05:20:44.615Z,35.00
2018-03-20T05:22:23.621Z,28.00
2018-03-20T05:24:02.478Z,30.00
2018-03-20T05:25:40.763Z,38.00
2018-03-20T05:27:19.227Z,32.50
2018-03-20T05:28:58.376Z,33.50
2018-03-20T05:30:37.560Z,33.00
2018-03-20T05:32:16.778Z,25.50
2018-03-20T05:33:55.762Z,32.25
2018-03-20T05:35:35.700Z,23.75
2018-03-20T05:37:15.787Z,32.00
2018-03-20T05:38:54.972Z,25.00
2018-03-20T05:40:33.029Z,39.50
2018-03-20T05:42:12.364Z,26.50
2018-03-20T05:43:51.076Z,30.00
2018-03-20T05:45:31.142Z,27.25
2018-03-20T05:47:10.271Z,32.75
2018-03-20T05:48:49.651Z,29.00
2018-03-20T05:50:29.084Z,34.00
2018-03-20T05:52:08.087Z,32.00
2018-03-20T05:53:47.009Z,33.75
2018-03-20T05:55:26.486Z,28.50
2018-03-20T05:57:05.098Z,31.50
2018-03-20T05:58:45.347Z,32.75
2018-03-20T06:00:26.170Z,38.50
2018-03-20T06:02:05.857Z,33.75
2018-03-20T06:03:44.847Z,26.00
2018-03-20T06:05:23.624Z,37.50
2018-03-20T06:07:01.823Z,31.00
2018-03-20T06:08:40.147Z,31.25
2018-03-20T06:10:21.015Z,34.25
2018-03-20T06:11:59.550Z,32.00
2018-03-20T06:13:44.860Z,35.75
2018-03-20T06:15:25.617Z,30.75
2018-03-20T06:17:04.969Z,40.75
2018-03-20T06:18:43.938Z,67.25
2018-03-20T06:20:22.260Z,40.00
2018-03-20T06:22:00.915Z,41.00
2018-03-20T06:23:38.451Z,31.75
2018-03-20T06:25:16.313Z,32.25
2018-03-20T06:26:54.715Z,43.00
2018-03-20T06:28:32.957Z,42.75
2018-03-20T06:30:11.924Z,40.75
2018-03-20T06:31:50.328Z,43.50
2018-03-20T06:33:29.242Z,32.25
2018-03-20T06:35:08.999Z,39.50
2018-03-20T06:36:48.430Z,43.00
2018-03-20T06:38:28.055Z,40.75
2018-03-20T06:40:06.363Z,40.25
2018-03-20T06:41:46.724Z,34.75
2018-03-20T06:43:25.515Z,44.00
2018-03-20T06:45:04.974Z,36.25
2018-03-20T06:46:45.229Z,34.50
2018-03-20T06:48:24.409Z,44.00
2018-03-20T06:50:03.774Z,33.75
2018-03-20T06:51:41.740Z,35.50
2018-03-20T06:53:21.010Z,41.75
2018-03-20T06:54:59.808Z,40.00
2018-03-20T06:56:38.310Z,45.50
2018-03-20T06:58:18.134Z,47.75
2018-03-20T06:59:57.779Z,44.00
2018-03-20T07:01:37.241Z,35.75
2018-03-20T07:03:15.582Z,42.50
2018-03-20T07:04:54.102Z,42.75
2018-03-20T07:06:33.462Z,47.50
2018-03-20T07:08:12.808Z,41.50
2018-03-20T07:09:51.885Z,44.00
2018-03-20T07:11:30.808Z,53.75
2018-03-20T07:13:09.186Z,45.75
2018-03-20T07:14:49.955Z,49.00
2018-03-20T07:16:28.401Z,56.75
2018-03-20T07:18:06.851Z,50.75
2018-03-20T07:19:46.284Z,62.25
2018-03-20T07:21:24.942Z,48.00
2018-03-20T07:23:03.125Z,37.50
2018-03-20T07:24:41.912Z,43.75
2018-03-20T07:26:20.780Z,45.00
2018-03-20T07:27:58.740Z,62.50
2018-03-20T07:29:37.283Z,49.50
2018-03-20T07:31:15.739Z,51.75
2018-03-20T07:32:55.166Z,36.00
2018-03-20T07:34:34.874Z,38.25
2018-03-20T07:36:13.466Z,46.25
2018-03-20T07:37:51.307Z,44.00
2018-03-20T07:39:29.899Z,42.25
2018-03-20T07:41:09.121Z,38.00
2018-03-20T07:42:47.859Z,40.75
2018-03-20T07:44:26.581Z,44.50
2018-03-20T07:46:05.588Z,46.50
2018-03-20T07:47:44.662Z,39.25
2018-03-20T07:51:01.390Z,43.25
2018-03-20T07:52:40.390Z,54.50
2018-03-20T07:54:18.545Z,59.25
2018-03-20T07:55:57.353Z,40.00
2018-03-20T07:57:35.645Z,49.25
2018-03-20T07:59:14.911Z,50.50
2018-03-20T08:00:55.242Z,54.50
2018-03-20T08:02:35.185Z,45.50
2018-03-20T08:04:13.930Z,58.75
2018-03-20T08:05:52.601Z,40.25
2018-03-20T08:07:32.084Z,54.50
2018-03-20T08:09:10.408Z,48.00
2018-03-20T08:10:49.482Z,51.25
2018-03-20T08:12:28.087Z,58.50
2018-03-20T08:14:06.191Z,56.00
2018-03-20T08:15:45.966Z,47.25
2018-03-20T08:17:24.083Z,58.50
2018-03-20T08:19:04.285Z,52.25
2018-03-20T08:20:43.100Z,58.00
2018-03-20T08:22:22.678Z,66.75
2018-03-20T08:24:01.728Z,56.50
2018-03-20T08:25:40.382Z,47.25
2018-03-20T08:27:19.833Z,54.00
2018-03-20T08:28:57.254Z,56.75
2018-03-20T08:30:36.080Z,50.00
2018-03-20T08:32:15.513Z,56.00
2018-03-20T08:33:53.560Z,49.50
2018-03-20T08:35:31.556Z,56.75
2018-03-20T08:37:09.578Z,59.75
2018-03-20T08:38:49.189Z,47.25
2018-03-20T08:40:26.672Z,62.75
2018-03-20T08:42:05.566Z,65.00
2018-03-20T08:43:44.800Z,59.50
2018-03-20T08:45:25.477Z,49.75
2018-03-20T08:47:05.303Z,50.25
2018-03-20T08:48:44.654Z,47.25
2018-03-20T08:50:23.565Z,44.50
2018-03-20T08:52:02.938Z,39.50
2018-03-20T08:53:42.478Z,52.25
2018-03-20T08:55:20.699Z,51.75
2018-03-20T08:56:59.379Z,39.75
2018-03-20T08:58:38.007Z,43.00
2018-03-20T09:00:18.350Z,43.50
2018-03-20T09:01:57.561Z,38.00
2018-03-20T09:03:36.439Z,31.50
2018-03-20T09:05:17.209Z,36.00
2018-03-20T09:06:56.738Z,32.25
2018-03-20T09:08:35.515Z,30.25
2018-03-20T09:10:14.781Z,32.25
2018-03-20T09:11:53.650Z,25.75
2018-03-20T09:13:32.370Z,27.50
2018-03-20T09:15:09.964Z,25.75
2018-03-20T09:16:48.936Z,28.00
2018-03-20T09:18:27.997Z,27.75
2018-03-20T09:20:07.993Z,24.25
2018-03-20T09:21:48.084Z,18.00
2018-03-20T09:23:27.270Z,35.25
2018-03-20T09:25:06.135Z,21.75
2018-03-20T09:26:45.086Z,19.25
2018-03-20T09:28:24.425Z,25.25
2018-03-20T09:30:03.759Z,21.50
2018-03-20T09:31:42.714Z,26.50
2018-03-20T09:33:22.361Z,23.50
2018-03-20T09:35:00.899Z,34.75
2018-03-20T09:36:39.572Z,26.25
2018-03-20T09:38:18.196Z,22.25
2018-03-20T09:39:57.589Z,22.25
2018-03-20T09:41:36.635Z,21.00
2018-03-20T09:43:14.773Z,13.25
2018-03-20T09:44:53.079Z,24.00
2018-03-20T09:46:31.158Z,17.50
2018-03-20T09:48:10.082Z,25.75
2018-03-20T09:49:48.126Z,22.25
2018-03-20T09:51:26.198Z,25.75
2018-03-20T09:53:04.905Z,18.00
2018-03-20T09:54:42.180Z,16.50
2018-03-20T09:56:19.990Z,12.50
2018-03-20T09:57:58.933Z,14.25
2018-03-20T09:59:37.841Z,25.25
2018-03-20T10:01:17.260Z,21.50
2018-03-20T10:02:55.249Z,10.75
2018-03-20T10:04:33.785Z,14.75
2018-03-20T10:06:11.510Z,12.50
2018-03-20T10:07:50.799Z,13.50
2018-03-20T10:09:29.054Z,11.00
2018-03-20T10:11:07.933Z,10.00
2018-03-20T10:12:47.242Z,15.00
2018-03-20T10:14:26.702Z,12.50
2018-03-20T10:16:06.675Z,17.00
2018-03-20T10:17:44.501Z,13.50
2018-03-20T10:19:23.205Z,13.25
2018-03-20T10:21:02.308Z,17.75
2018-03-20T10:22:40.838Z,14.50
2018-03-20T10:24:18.857Z,19.00
2018-03-20T10:25:57.014Z,10.00
2018-03-20T10:27:36.028Z,12.00
2018-03-20T10:29:14.418Z,9.00
2018-03-20T10:30:52.829Z,10.00
2018-03-20T10:32:31.327Z,14.75
2018-03-20T10:34:10.262Z,7.75
2018-03-20T10:35:49.607Z,13.00
2018-03-20T10:37:27.395Z,11.25
2018-03-20T10:39:06.776Z,13.25
2018-03-20T10:40:45.762Z,8.00
2018-03-20T10:42:23.818Z,6.25
2018-03-20T10:44:01.532Z,5.75
2018-03-20T10:45:41.120Z,7.00
2018-03-20T10:47:20.056Z,8.50
2018-03-20T10:48:59.082Z,4.00
2018-03-20T10:50:37.040Z,7.25
2018-03-20T10:52:15.320Z,7.00
2018-03-20T10:53:53.979Z,7.75
2018-03-20T10:55:31.840Z,10.50
2018-03-20T10:57:09.526Z,7.00
2018-03-20T10:58:48.491Z,6.50
2018-03-20T11:00:33.761Z,8.00
2018-03-20T11:02:15.919Z,7.25
2018-03-20T11:03:54.021Z,7.25
2018-03-20T11:05:32.818Z,5.25
2018-03-20T11:07:11.414Z,2.50
2018-03-20T11:08:49.293Z,4.00
2018-03-20T11:10:27.901Z,4.00
2018-03-20T11:12:06.811Z,5.00
2018-03-20T11:13:45.056Z,2.00
2018-03-20T11:15:25.345Z,4.00
2018-03-20T11:17:03.836Z,4.75
2018-03-20T11:18:43.281Z,5.00
2018-03-20T11:20:20.572Z,5.50
2018-03-20T11:21:58.922Z,10.25
2018-03-20T11:23:37.500Z,7.50
2018-03-20T11:25:16.456Z,1.75
2018-03-20T11:26:55.208Z,5.00
2018-03-20T11:28:33.742Z,4.25
2018-03-20T11:30:13.242Z,3.50
2018-03-20T11:31:54.252Z,2.00
2018-03-20T11:33:32.766Z,4.00
2018-03-20T11:35:11.481Z,4.75
2018-03-20T11:36:49.946Z,12.75
2018-03-20T11:38:29.288Z,5.00
2018-03-20T11:40:07.566Z,4.75
2018-03-20T11:41:47.158Z,5.50
2018-03-20T11:43:25.671Z,4.00
2018-03-20T11:45:04.639Z,2.00
2018-03-20T11:46:43.503Z,4.00
2018-03-20T11:48:21.460Z,9.25
2018-03-20T11:50:00.201Z,4.25
2018-03-20T11:51:38.010Z,4.00
2018-03-20T11:53:15.995Z,2.00
2018-03-20T11:54:54.482Z,4.25
2018-03-20T11:56:33.000Z,4.00
2018-03-20T11:58:12.146Z,2.50
2018-03-20T11:59:50.161Z,2.00
2018-03-20T12:01:29.321Z,2.00
2018-03-20T12:03:07.436Z,7.50
2018-03-20T12:04:45.831Z,3.50
2018-03-20T12:06:24.898Z,4.00
2018-03-20T12:08:11.896Z,5.00
2018-03-20T12:09:52.935Z,3.50
2018-03-20T12:11:31.349Z,6.00
2018-03-20T12:13:09.460Z,4.25
2018-03-20T12:14:47.417Z,3.00
2018-03-20T12:16:25.078Z,2.00
2018-03-20T12:18:03.551Z,4.00
2018-03-20T12:19:42.174Z,2.00
2018-03-20T12:21:20.942Z,5.00
2018-03-20T12:22:59.745Z,2.00
2018-03-20T12:24:37.847Z,3.00
2018-03-20T12:26:17.061Z,6.00
2018-03-20T12:27:55.121Z,1.25
2018-03-20T12:29:33.865Z,4.00
2018-03-20T12:31:13.135Z,4.50
2018-03-20T12:32:50.968Z,6.50
2018-03-20T12:34:29.931Z,2.00
2018-03-20T12:36:08.594Z,2.00
2018-03-20T12:37:47.563Z,3.50
2018-03-20T12:39:26.039Z,7.50
2018-03-20T12:41:04.395Z,6.25
2018-03-20T12:42:42.213Z,2.00
2018-03-20T12:44:20.192Z,2.00
2018-03-20T12:45:59.144Z,1.75
2018-03-20T12:47:37.538Z,5.00
2018-03-20T12:49:15.874Z,3.00
2018-03-20T12:50:54.308Z,5.00
2018-03-20T12:52:33.356Z,4.00
2018-03-20T12:54:11.277Z,5.25
2018-03-20T12:55:50.869Z,2.00
2018-03-20T12:57:28.616Z,2.00
2018-03-20T12:59:06.652Z,4.25
2018-03-20T13:00:45.556Z,2.00
2018-03-20T13:02:23.253Z,4.75
2018-03-20T13:04:01.648Z,5.50
2018-03-20T13:05:38.750Z,2.50
2018-03-20T13:07:17.536Z,2.00
2018-03-20T13:08:55.407Z,3.00
2018-03-20T13:10:34.396Z,2.00
2018-03-20T13:12:12.563Z,1.25
2018-03-20T13:13:51.452Z,8.50
2018-03-20T13:15:34.285Z,4.00
2018-03-20T13:17:12.427Z,2.00
2018-03-20T13:18:50.769Z,1.75
2018-03-20T13:20:28.912Z,6.75
2018-03-20T13:22:07.559Z,3.00
2018-03-20T13:23:47.445Z,3.50
2018-03-20T13:25:25.063Z,4.25
2018-03-20T13:27:03.647Z,2.00
2018-03-20T13:28:41.477Z,4.50
2018-03-20T13:30:21.486Z,4.75
2018-03-20T13:33:41.479Z,4.00
2018-03-20T13:37:03.652Z,2.00
2018-03-20T13:38:43.382Z,2.00
2018-03-20T13:40:21.633Z,3.00
2018-03-20T13:41:59.991Z,4.00
2018-03-20T13:43:38.317Z,2.00
2018-03-20T13:45:18.280Z,2.50
2018-03-20T13:46:56.741Z,2.00
2018-03-20T13:48:35.296Z,3.50
2018-03-20T13:50:13.770Z,6.75
2018-03-20T13:51:52.792Z,4.25
2018-03-20T13:53:31.571Z,2.00
2018-03-20T13:55:09.964Z,2.00
2018-03-20T13:56:47.544Z,2.00
2018-03-20T13:58:25.951Z,4.25
2018-03-20T14:00:06.097Z,3.00
2018-03-20T14:01:45.240Z,1.75
2018-03-20T14:03:23.642Z,3.50
2018-03-20T14:05:02.005Z,5.00
2018-03-20T14:06:40.645Z,2.00
2018-03-20T14:08:18.356Z,1.00
2018-03-20T14:09:56.672Z,4.25
2018-03-20T14:11:35.729Z,3.25
2018-03-20T14:13:13.536Z,5.00
2018-03-20T14:14:51.833Z,2.00
2018-03-20T14:16:29.589Z,6.00
2018-03-20T14:18:09.302Z,2.00
2018-03-20T14:19:48.611Z,1.75
2018-03-20T14:21:27.101Z,2.00
2018-03-20T14:23:05.909Z,8.00
2018-03-20T14:24:45.082Z,2.00
2018-03-20T14:26:24.438Z,1.50
2018-03-20T14:28:03.203Z,2.00
2018-03-20T14:29:44.462Z,2.00
2018-03-20T14:31:24.045Z,2.00
2018-03-20T14:33:03.682Z,1.75
2018-03-20T14:34:46.380Z,2.00
2018-03-20T14:36:25.174Z,5.00
2018-03-20T14:38:06.127Z,4.75
2018-03-20T14:39:46.850Z,3.50
2018-03-20T14:41:25.272Z,5.00
2018-03-20T14:43:05.491Z,2.00
2018-03-20T14:44:45.156Z,1.75
2018-03-20T14:46:23.951Z,2.00
2018-03-20T14:49:48.043Z,1.50
2018-03-20T14:51:27.976Z,1.00
2018-03-20T14:53:06.752Z,2.00
2018-03-20T14:54:48.017Z,2.00
2018-03-20T14:56:26.873Z,4.00
2018-03-20T14:58:05.474Z,2.00
2018-03-20T14:59:43.863Z,2.00
2018-03-20T15:01:23.097Z,2.00
2018-03-20T15:03:01.363Z,4.25
2018-03-20T15:04:39.526Z,5.00
2018-03-20T15:06:18.448Z,3.50
2018-03-20T15:07:57.700Z,3.50
2018-03-20T15:09:36.961Z,4.00
2018-03-20T15:11:15.935Z,4.00
2018-03-20T15:12:55.769Z,1.50
2018-03-20T15:14:33.702Z,4.00
2018-03-20T15:16:13.327Z,5.00
2018-03-20T15:17:51.975Z,3.00
2018-03-20T15:19:30.884Z,2.00
2018-03-20T15:21:09.540Z,4.00
2018-03-20T15:22:50.361Z,1.75
2018-03-20T15:24:31.033Z,5.00
2018-03-20T15:26:10.404Z,2.00
2018-03-20T15:27:49.579Z,2.50
2018-03-20T15:29:28.793Z,2.00
2018-03-20T15:31:08.587Z,1.75
2018-03-20T15:32:46.887Z,4.50
2018-03-20T15:34:25.133Z,2.00
2018-03-20T15:36:05.440Z,3.00
2018-03-20T15:37:44.254Z,2.00
2018-03-20T15:39:23.598Z,1.50
2018-03-20T15:41:02.076Z,2.50
2018-03-20T15:42:42.771Z,6.00
2018-03-20T15:44:21.581Z,4.75
2018-03-20T15:46:00.147Z,7.50
2018-03-20T15:47:38.101Z,2.00
2018-03-20T15:49:16.268Z,9.00
2018-03-20T15:50:56.372Z,5.00
2018-03-20T15:52:36.208Z,4.00
2018-03-20T15:54:14.511Z,2.00
2018-03-20T15:55:54.036Z,6.00
2018-03-20T15:57:32.565Z,5.00
2018-03-20T15:59:11.415Z,4.00
2018-03-20T16:00:51.658Z,4.00
2018-03-20T16:02:31.285Z,2.00
2018-03-20T16:04:11.529Z,1.75
2018-03-20T16:05:49.691Z,4.50
2018-03-20T16:07:28.449Z,2.00
2018-03-20T16:09:10.108Z,2.00
2018-03-20T16:10:49.369Z,2.00
2018-03-20T16:12:29.519Z,1.25
2018-03-20T16:14:09.642Z,1.00
2018-03-20T16:15:49.487Z,2.00
2018-03-20T16:17:30.069Z,3.50
2018-03-20T16:19:10.405Z,1.75
2018-03-20T16:20:57.365Z,2.00
2018-03-20T16:22:39.411Z,2.00
2018-03-20T16:24:18.168Z,3.50
2018-03-20T16:25:57.162Z,1.50
2018-03-20T16:27:40.620Z,2.00
2018-03-20T16:29:18.224Z,1.75
2018-03-20T16:30:58.422Z,3.50
2018-03-20T16:32:38.508Z,1.00
2018-03-20T16:34:15.967Z,5.00
2018-03-20T16:35:53.762Z,1.00
2018-03-20T16:37:32.828Z,3.00
2018-03-20T16:39:14.198Z,2.00
2018-03-20T16:40:54.854Z,2.50
2018-03-20T16:42:34.314Z,1.00
2018-03-20T16:44:13.843Z,2.00
2018-03-20T16:45:53.363Z,2.50
2018-03-20T16:47:34.297Z,2.00
2018-03-20T16:49:14.300Z,4.00
2018-03-20T16:50:54.113Z,2.00
2018-03-20T16:52:32.368Z,5.00
2018-03-20T16:55:57.720Z,4.00
2018-03-20T16:57:37.291Z,2.00
2018-03-20T16:59:18.820Z,4.50
2018-03-20T17:00:58.772Z,1.00
2018-03-20T17:02:39.759Z,1.75
2018-03-20T17:04:18.586Z,2.00
2018-03-20T17:06:00.485Z,2.00
2018-03-20T17:07:43.737Z,2.00
2018-03-20T17:09:23.678Z,5.00
2018-03-20T17:11:04.512Z,1.00
2018-03-20T17:12:44.848Z,5.00
2018-03-20T17:14:26.049Z,4.00
2018-03-20T17:16:07.461Z,3.00
2018-03-20T17:17:46.435Z,1.00
2018-03-20T17:19:26.628Z,4.75
2018-03-20T17:21:07.134Z,2.00
2018-03-20T17:22:48.284Z,3.25
2018-03-20T17:24:29.606Z,1.50
2018-03-20T17:26:09.435Z,3.00
2018-03-20T17:27:51.184Z,4.75
2018-03-20T17:29:37.581Z,4.00
2018-03-20T17:31:30.097Z,2.00
2018-03-20T17:33:42.138Z,5.50
2018-03-20T17:35:24.642Z,2.50
2018-03-20T17:37:10.667Z,2.50
2018-03-20T17:38:50.247Z,4.00
2018-03-20T17:40:34.056Z,4.75
2018-03-20T17:42:16.788Z,4.00
2018-03-20T17:43:58.343Z,3.50
2018-03-20T17:45:42.891Z,2.00
2018-03-20T17:47:30.331Z,4.00
2018-03-20T17:49:17.851Z,7.25
2018-03-20T17:51:00.018Z,2.00
2018-03-20T17:52:45.414Z,4.50
2018-03-20T17:54:28.159Z,6.75
2018-03-20T17:56:16.291Z,6.00
2018-03-20T17:58:00.770Z,4.25
2018-03-20T17:59:43.771Z,8.50
2018-03-20T18:04:18.723Z,7.00
2018-03-20T18:05:59.938Z,7.00
2018-03-20T18:07:39.698Z,4.50
2018-03-20T18:09:20.728Z,4.75
2018-03-20T18:10:59.241Z,4.00
2018-03-20T18:12:42.741Z,6.00
2018-03-20T18:14:25.057Z,6.50
2018-03-20T18:16:05.171Z,8.25
2018-03-20T18:17:46.446Z,7.00
2018-03-20T18:19:29.975Z,4.00
2018-03-20T18:21:10.631Z,5.00
2018-03-20T18:22:55.142Z,8.00
2018-03-20T18:24:36.998Z,5.00
2018-03-20T18:26:19.413Z,4.00
2018-03-20T18:28:00.663Z,7.00
2018-03-20T18:29:44.286Z,5.00
2018-03-20T18:31:27.790Z,7.00
2018-03-20T18:33:11.793Z,6.00
2018-03-20T18:34:55.055Z,5.00
2018-03-20T18:36:36.183Z,2.00
2018-03-20T18:38:19.077Z,3.50
2018-03-20T18:40:03.408Z,4.00
2018-03-20T18:41:47.039Z,2.50
2018-03-20T18:43:36.180Z,5.00
2018-03-20T18:45:20.803Z,4.50
2018-03-20T18:47:01.695Z,4.25
2018-03-20T18:48:44.296Z,4.75
2018-03-20T18:50:26.495Z,6.00
2018-03-20T18:52:11.538Z,6.50
2018-03-20T18:53:53.883Z,3.00
2018-03-20T18:55:39.421Z,3.50
2018-03-20T18:57:22.406Z,5.75
2018-03-20T18:59:06.334Z,6.00
2018-03-20T19:00:48.584Z,4.00
2018-03-20T19:02:33.190Z,6.00
2018-03-20T19:04:16.297Z,6.00
2018-03-20T19:06:00.066Z,6.50
2018-03-20T19:07:43.422Z,10.00
2018-03-20T19:09:27.135Z,10.50
2018-03-20T19:11:14.895Z,5.50
2018-03-20T19:12:57.338Z,8.00
2018-03-20T19:14:38.565Z,10.00
2018-03-20T19:16:18.761Z,7.00
2018-03-20T19:18:00.434Z,6.00
2018-03-20T19:19:43.076Z,8.00
2018-03-20T19:21:28.953Z,11.00
2018-03-20T19:23:10.192Z,7.75
2018-03-20T19:24:52.706Z,6.75
2018-03-20T19:26:34.014Z,4.00
2018-03-20T19:28:17.662Z,8.00
2018-03-20T19:30:03.694Z,9.00
2018-03-20T19:31:47.566Z,7.25
2018-03-20T19:33:27.829Z,7.00
2018-03-20T19:35:08.955Z,6.25
2018-03-20T19:36:50.886Z,6.50
2018-03-20T19:38:30.877Z,6.50
2018-03-20T19:40:13.437Z,4.00
2018-03-20T19:41:56.008Z,8.00
2018-03-20T19:43:38.204Z,6.50
2018-03-20T19:45:20.406Z,7.00
2018-03-20T19:47:01.095Z,11.25
2018-03-20T19:48:41.331Z,9.00
2018-03-20T19:50:27.848Z,9.00
2018-03-20T19:52:10.122Z,8.00
2018-03-20T19:53:51.509Z,5.50
2018-03-20T19:55:36.463Z,7.00
2018-03-20T19:57:19.022Z,8.75
2018-03-20T19:58:59.141Z,10.00
2018-03-20T20:00:41.502Z,7.50
2018-03-20T20:02:26.305Z,6.25
2018-03-20T20:04:13.752Z,5.25
2018-03-20T20:05:55.759Z,6.25
2018-03-20T20:07:39.852Z,9.25
2018-03-20T20:09:23.691Z,6.00
2018-03-20T20:11:05.121Z,6.75
2018-03-20T20:12:48.898Z,10.00
2018-03-20T20:14:30.750Z,7.00
2018-03-20T20:16:10.956Z,8.75
2018-03-20T20:17:55.087Z,7.00
2018-03-20T20:19:36.787Z,9.25
2018-03-20T20:21:16.538Z,8.50
2018-03-20T20:22:57.200Z,4.00
2018-03-20T20:24:40.075Z,11.50
2018-03-20T20:26:23.056Z,7.00
2018-03-20T20:28:06.571Z,7.00
2018-03-20T20:29:47.250Z,8.00
2018-03-20T20:31:30.228Z,8.75
2018-03-20T20:33:11.074Z,8.75
2018-03-20T20:34:53.432Z,11.50
2018-03-20T20:36:36.296Z,9.25
2018-03-20T20:38:17.894Z,5.00
2018-03-20T20:39:58.988Z,7.00
2018-03-20T20:41:42.244Z,9.25
2018-03-20T20:43:24.085Z,5.50
2018-03-20T20:45:08.423Z,7.50
2018-03-20T20:46:50.869Z,4.00
2018-03-20T20:48:30.735Z,6.50
2018-03-20T20:50:13.844Z,5.00
2018-03-20T20:51:54.444Z,10.75
2018-03-20T20:53:37.240Z,14.00
2018-03-20T20:55:18.817Z,9.50
2018-03-20T20:56:58.668Z,10.25
2018-03-20T20:58:39.335Z,13.00
2018-03-20T21:00:23.493Z,12.75
2018-03-20T21:02:03.452Z,11.75
2018-03-20T21:03:45.609Z,9.00
2018-03-20T21:05:25.454Z,13.00
2018-03-20T21:07:04.332Z,12.00
2018-03-20T21:08:42.688Z,19.00
2018-03-20T21:10:21.757Z,11.25
2018-03-20T21:11:59.924Z,7.00
2018-03-20T21:13:37.712Z,15.00
2018-03-20T21:15:21.471Z,9.75
2018-03-20T21:17:01.340Z,9.75
2018-03-20T21:18:41.305Z,9.25
2018-03-20T21:20:21.035Z,10.00
2018-03-20T21:22:00.650Z,8.00
2018-03-20T21:23:40.022Z,9.00
2018-03-20T21:25:18.069Z,7.75
2018-03-20T21:26:57.113Z,13.00
2018-03-20T21:28:35.853Z,7.75
2018-03-20T21:30:15.530Z,12.25
2018-03-20T21:31:54.279Z,10.25
2018-03-20T21:33:33.518Z,11.00
2018-03-20T21:35:14.138Z,10.00
2018-03-20T21:36:52.945Z,15.50
2018-03-20T21:38:30.896Z,10.50
2018-03-20T21:40:10.245Z,17.25
2018-03-20T21:41:49.475Z,13.00
2018-03-20T21:43:28.093Z,12.25
2018-03-20T21:45:10.016Z,12.50
2018-03-20T21:46:49.887Z,11.50
2018-03-20T21:48:28.330Z,10.75
2018-03-20T21:50:08.046Z,10.25
2018-03-20T21:51:48.610Z,12.75
2018-03-20T21:53:29.814Z,11.75
2018-03-20T21:55:09.615Z,14.25
2018-03-20T21:56:47.580Z,10.00